Time;durP1;ratioP1;P1;durP2;ratioP2;P2;SDS_P1;SDS_P2;PMS_P1;PMS_P2;Temp;Humidity;BMP_temperature;BMP_pressure;BME280_temperature;BME280_humidity;BME280_pressure;Samples;Min_cycle;Max_cycle;Signal;HPM_P1;HPM_P2
2021/11/07 00:01:43;;;;;;;0.30;0.30;;;;;;;10.40;83.20;101812.06;5056670;28;20029;-66
2021/11/07 00:06:50;;;;;;;0.20;0.20;;;;;;;10.42;83.26;101809.53;5057155;28;20112;-68
2021/11/07 00:09:27;;;;;;;0.20;0.20;;;;;;;10.40;83.26;101801.56;5056845;28;20037;-68
2021/11/07 00:11:58;;;;;;;0.20;0.20;;;;;;;10.40;83.44;101804.19;5041193;28;20103;-67
2021/11/07 00:14:24;;;;;;;0.10;0.10;;;;;;;10.39;83.38;101802.41;5040011;28;20036;-67
2021/11/07 00:16:50;;;;;;;0.27;0.27;;;;;;;10.46;83.28;101805.34;5057067;28;20032;-66
2021/11/07 00:19:41;;;;;;;0.10;0.10;;;;;;;10.50;83.47;101796.78;5022280;28;20097;-68
2021/11/07 00:22:06;;;;;;;0.20;0.20;;;;;;;10.54;83.06;101798.72;5054212;28;20174;-68
2021/11/07 00:24:39;;;;;;;0.20;0.20;;;;;;;10.52;83.03;101798.63;5055405;28;20031;-66
2021/11/07 00:27:20;;;;;;;0.10;0.10;;;;;;;10.52;83.16;101796.03;5057024;28;20037;-67
2021/11/07 00:29:56;;;;;;;0.27;0.27;;;;;;;10.52;83.23;101793.41;5056586;28;20025;-68
2021/11/07 00:32:29;;;;;;;0.20;0.20;;;;;;;10.54;83.44;101798.72;5056507;28;20028;-65
2021/11/07 00:35:35;;;;;;;0.10;0.10;;;;;;;10.56;83.41;101803.19;5039188;28;20120;-67
2021/11/07 00:37:53;;;;;;;0.13;0.13;;;;;;;10.58;83.25;101801.53;5057107;28;20032;-68
2021/11/07 00:43:14;;;;;;;0.40;0.40;;;;;;;10.69;83.01;101804.63;5056406;28;20079;-67
2021/11/07 00:45:55;;;;;;;0.10;0.10;;;;;;;10.69;83.15;101801.09;5039160;28;20395;-65
2021/11/07 00:48:24;;;;;;;0.13;0.13;;;;;;;10.70;83.04;101801.16;5040807;28;20041;-68
2021/11/07 00:51:05;;;;;;;0.20;0.20;;;;;;;10.74;83.18;101799.59;5056900;28;20052;-67
2021/11/07 00:58:43;;;;;;;0.20;0.20;;;;;;;10.79;83.04;101779.72;5047864;28;20036;-68
2021/11/07 01:01:12;;;;;;;0.30;0.30;;;;;;;10.81;82.99;101772.81;5038501;28;20145;-69
2021/11/07 01:03:39;;;;;;;0.30;0.30;;;;;;;10.84;82.89;101788.66;5056367;28;20016;-66
2021/11/07 01:06:04;;;;;;;0.20;0.20;;;;;;;10.84;83.16;101769.44;5039148;28;20029;-67
2021/11/07 01:08:30;;;;;;;0.27;0.27;;;;;;;10.83;83.04;101757.16;5056523;28;20083;-68
2021/11/07 01:11:00;;;;;;;0.20;0.20;;;;;;;10.85;82.96;101748.53;5038775;28;20321;-67
2021/11/07 01:13:27;;;;;;;0.30;0.30;;;;;;;10.85;83.15;101760.75;5056542;28;20090;-67
2021/11/07 01:15:52;;;;;;;0.20;0.20;;;;;;;10.86;83.17;101766.03;5056676;28;20449;-65
2021/11/07 01:18:18;;;;;;;0.50;0.50;;;;;;;10.90;83.05;101769.66;5036919;28;20025;-68
2021/11/07 01:20:43;;;;;;;0.20;0.20;;;;;;;10.88;83.31;101778.31;5038496;28;20048;-67
2021/11/07 01:23:32;;;;;;;0.20;0.20;;;;;;;10.90;83.48;101764.44;5055555;28;20028;-66
2021/11/07 01:26:04;;;;;;;0.20;0.20;;;;;;;10.86;83.62;101755.53;5055547;28;20033;-65
2021/11/07 01:28:37;;;;;;;0.13;0.13;;;;;;;10.85;83.55;101758.13;5056360;28;20029;-65
2021/11/07 01:31:02;;;;;;;0.30;0.30;;;;;;;10.85;83.87;101761.63;5056331;28;20017;-66
2021/11/07 01:33:28;;;;;;;0.20;0.20;;;;;;;10.88;83.69;101752.13;5055889;28;20025;-67
2021/11/07 01:38:50;;;;;;;0.37;0.37;;;;;;;10.92;83.33;101748.78;5056579;28;20136;-66
2021/11/07 01:41:34;;;;;;;0.30;0.30;;;;;;;10.90;83.55;101764.44;5055388;28;20403;-65
2021/11/07 01:44:00;;;;;;;0.20;0.20;;;;;;;10.89;83.75;101756.53;5055580;28;20060;-65
2021/11/07 01:46:31;;;;;;;0.27;0.27;;;;;;;10.89;83.57;101761.78;5056127;28;20102;-65
2021/11/07 01:49:05;;;;;;;0.20;0.20;;;;;;;10.95;83.11;101751.50;5056228;28;20444;-67
2021/11/07 01:51:32;;;;;;;0.30;0.30;;;;;;;10.96;83.06;101748.09;5055791;28;20032;-66
2021/11/07 01:54:10;;;;;;;0.30;0.30;;;;;;;10.96;82.88;101746.34;5055986;28;20036;-65
2021/11/07 01:56:35;;;;;;;0.20;0.20;;;;;;;10.96;83.48;101742.84;5059267;28;20032;-66
2021/11/07 01:59:01;;;;;;;0.30;0.30;;;;;;;10.99;82.71;101750.81;5059881;28;20024;-69
2021/11/07 02:01:26;;;;;;;0.30;0.30;;;;;;;10.99;82.90;101743.88;5058972;28;20025;-67
2021/11/07 02:03:52;;;;;;;0.10;0.10;;;;;;;10.95;82.76;101738.41;5059937;28;20081;-66
2021/11/07 02:06:18;;;;;;;0.20;0.20;;;;;;;10.96;82.83;101721.88;5060039;28;20130;-67
2021/11/07 02:08:43;;;;;;;0.27;0.27;;;;;;;11.00;82.61;101721.16;5041822;28;20021;-67
2021/11/07 02:11:09;;;;;;;0.30;0.30;;;;;;;10.98;82.55;101704.50;5042360;28;20036;-68
2021/11/07 02:13:35;;;;;;;0.30;0.30;;;;;;;10.97;82.75;101702.72;5041677;28;20033;-67
2021/11/07 02:16:02;;;;;;;0.37;0.37;;;;;;;10.95;82.83;101720.06;5059464;28;20134;-68
2021/11/07 02:18:28;;;;;;;0.40;0.40;;;;;;;10.97;82.60;101710.56;5057184;28;20009;-67
2021/11/07 02:20:54;;;;;;;0.40;0.40;;;;;;;11.01;82.47;101701.09;5042273;28;20418;-68
2021/11/07 02:23:21;;;;;;;0.13;0.13;;;;;;;10.99;82.55;101696.69;5059138;28;20461;-67
2021/11/07 02:25:48;;;;;;;0.20;0.20;;;;;;;10.98;82.42;101701.88;5059891;28;20087;-67
2021/11/07 02:28:27;;;;;;;0.33;0.33;;;;;;;10.96;82.22;101719.28;5059049;28;20095;-68
2021/11/07 02:30:53;;;;;;;0.30;0.30;;;;;;;10.99;82.01;101712.44;5058495;28;20386;-68
2021/11/07 02:33:18;;;;;;;0.27;0.27;;;;;;;10.98;82.28;101701.88;5058759;28;20103;-69
2021/11/07 02:35:44;;;;;;;0.20;0.20;;;;;;;10.97;82.02;101700.97;5059364;28;20598;-69
2021/11/07 02:38:09;;;;;;;0.30;0.30;;;;;;;10.99;81.86;101699.31;5058573;28;20017;-69
2021/11/07 02:40:35;;;;;;;0.30;0.30;;;;;;;11.00;82.10;101692.34;5059279;28;20413;-66
2021/11/07 02:43:01;;;;;;;0.27;0.27;;;;;;;11.03;81.60;101699.44;5058620;28;20407;-69
2021/11/07 02:45:28;;;;;;;0.30;0.30;;;;;;;11.04;81.18;101703.84;5059317;28;20059;-63
2021/11/07 02:47:54;;;;;;;0.23;0.23;;;;;;;11.05;80.29;101696.03;5057877;28;20031;-66
2021/11/07 02:50:20;;;;;;;0.80;0.80;;;;;;;11.00;78.56;101694.97;5059086;28;20097;-65
2021/11/07 02:52:47;;;;;;;0.50;0.50;;;;;;;10.93;78.22;101696.44;5041568;28;20287;-65
2021/11/07 02:55:13;;;;;;;0.50;0.50;;;;;;;10.88;78.47;101687.50;5058787;28;20033;-68
2021/11/07 02:57:38;;;;;;;0.30;0.30;;;;;;;10.81;78.28;101693.31;5058778;28;20032;-66
2021/11/07 03:00:09;;;;;;;0.37;0.37;;;;;;;10.73;78.11;101687.78;5058725;28;20021;-66
2021/11/07 03:02:35;;;;;;;0.30;0.30;;;;;;;10.70;78.05;101703.34;5040692;28;20307;-65
2021/11/07 03:05:00;;;;;;;0.47;0.47;;;;;;;10.71;77.69;101705.16;5040814;28;20029;-66
2021/11/07 03:07:26;;;;;;;0.30;0.30;;;;;;;10.72;77.33;101713.06;5058081;28;20027;-69
2021/11/07 03:09:52;;;;;;;0.30;0.30;;;;;;;10.68;74.90;101705.00;5058304;28;20025;-66
2021/11/07 03:12:17;;;;;;;0.43;0.43;;;;;;;10.65;71.44;101708.38;5058446;28;20052;-63
2021/11/07 03:14:46;;;;;;;0.30;0.30;;;;;;;10.65;72.66;101720.59;5058705;28;20029;-65
2021/11/07 03:17:13;;;;;;;0.43;0.43;;;;;;;10.65;70.09;101711.00;5057949;28;20104;-66
2021/11/07 03:19:39;;;;;;;0.33;0.33;;;;;;;10.64;69.73;101719.69;5058152;28;20024;-65
2021/11/07 03:22:08;;;;;;;0.37;0.37;;;;;;;10.62;68.40;101717.84;5039444;28;20025;-66
2021/11/07 03:24:33;;;;;;;0.50;0.50;;;;;;;10.58;69.20;101719.44;5057909;28;20036;-67
2021/11/07 03:26:59;;;;;;;0.50;0.50;;;;;;;10.57;68.27;101725.50;5058132;28;20082;-65
2021/11/07 03:29:33;;;;;;;0.40;0.40;;;;;;;10.55;66.68;101715.00;5058036;28;20029;-67
2021/11/07 03:32:08;;;;;;;0.33;0.33;;;;;;;10.52;65.53;101714.84;5057124;28;20029;-66
2021/11/07 03:34:35;;;;;;;0.55;0.55;;;;;;;10.50;65.26;101715.59;5058526;28;20184;-68
2021/11/07 03:37:05;;;;;;;0.60;0.60;;;;;;;10.46;63.77;101711.94;5058137;28;20028;-69
2021/11/07 03:39:35;;;;;;;0.47;0.47;;;;;;;10.48;62.60;101706.78;5057990;28;20120;-67
2021/11/07 03:42:04;;;;;;;0.60;0.60;;;;;;;10.46;63.43;101704.09;5057217;28;20758;-66
2021/11/07 03:44:29;;;;;;;0.60;0.60;;;;;;;10.45;63.73;101704.94;5040423;28;20029;-66
2021/11/07 03:46:56;;;;;;;0.63;0.63;;;;;;;10.41;63.55;101696.00;5056366;28;20280;-66
2021/11/07 03:49:22;;;;;;;0.53;0.53;;;;;;;10.36;64.18;101687.09;5057184;28;20029;-67
2021/11/07 03:51:48;;;;;;;0.47;0.47;;;;;;;10.35;63.40;101711.50;5057717;28;20100;-67
2021/11/07 03:54:15;;;;;;;0.40;0.40;;;;;;;10.37;63.59;101694.09;5056418;28;20136;-67
2021/11/07 03:56:40;;;;;;;0.50;0.50;;;;;;;10.36;64.59;101684.47;5040990;28;20064;-65
2021/11/07 03:59:06;;;;;;;0.50;0.50;;;;;;;10.32;65.13;101682.53;5039916;28;20079;-66
2021/11/07 04:01:32;;;;;;;0.40;0.40;;;;;;;10.28;64.40;101681.50;5039873;28;20079;-66
2021/11/07 04:03:58;;;;;;;0.57;0.57;;;;;;;10.27;65.64;101679.72;5057095;28;20082;-65
2021/11/07 04:06:24;;;;;;;0.33;0.33;;;;;;;10.31;65.08;101679.03;5057807;28;20025;-66
2021/11/07 04:08:49;;;;;;;0.43;0.43;;;;;;;10.28;66.56;101691.97;5057573;28;20060;-66
2021/11/07 04:11:14;;;;;;;0.40;0.40;;;;;;;10.24;66.21;101686.53;5040127;28;20063;-68
2021/11/07 04:13:40;;;;;;;0.60;0.60;;;;;;;10.22;66.12;101693.44;5056985;28;20025;-67
2021/11/07 04:16:10;;;;;;;0.40;0.40;;;;;;;10.21;66.11;101696.91;5054962;28;20040;-67
2021/11/07 04:18:38;;;;;;;0.50;0.50;;;;;;;10.22;66.71;101696.94;5056522;28;20036;-67
2021/11/07 04:21:03;;;;;;;0.47;0.47;;;;;;;10.23;67.04;101692.63;5040026;28;20024;-65
2021/11/07 04:23:29;;;;;;;0.60;0.60;;;;;;;10.25;67.10;101683.09;5057132;28;20036;-65
2021/11/07 04:25:54;;;;;;;0.67;0.67;;;;;;;10.25;67.01;101690.94;5056526;28;20041;-65
2021/11/07 04:28:20;;;;;;;0.60;0.60;;;;;;;10.26;67.41;101708.44;5039696;28;20039;-69
2021/11/07 04:30:46;;;;;;;0.50;0.50;;;;;;;10.28;67.49;101681.50;5057298;28;20296;-65
2021/11/07 04:33:11;;;;;;;0.30;0.30;;;;;;;10.30;65.82;101674.63;5056172;28;20029;-66
2021/11/07 04:35:36;;;;;;;0.40;0.40;;;;;;;10.37;66.26;101708.91;5057178;28;20048;-69
2021/11/07 04:38:02;;;;;;;0.53;0.53;;;;;;;10.37;65.25;101704.59;5038820;28;20132;-67
2021/11/07 04:40:27;;;;;;;0.50;0.50;;;;;;;10.40;64.25;101699.47;5056676;28;20035;-67
2021/11/07 04:42:53;;;;;;;0.40;0.40;;;;;;;10.39;64.30;101694.19;5056333;28;20036;-65
2021/11/07 04:45:19;;;;;;;0.40;0.40;;;;;;;10.34;64.60;101695.69;5056894;28;20033;-66
2021/11/07 04:47:47;;;;;;;0.50;0.50;;;;;;;10.27;63.73;101690.19;5038993;28;20040;-68
2021/11/07 04:50:15;;;;;;;0.50;0.50;;;;;;;10.23;63.86;101675.19;5056311;28;20060;-66
2021/11/07 04:52:44;;;;;;;0.80;0.80;;;;;;;10.22;63.67;101680.34;5056988;28;20256;-66
2021/11/07 04:55:10;;;;;;;0.30;0.30;;;;;;;10.17;64.33;101694.13;5056473;28;20025;-67
2021/11/07 04:57:42;;;;;;;0.40;0.40;;;;;;;10.15;63.51;101697.53;5056695;28;20043;-65
2021/11/07 05:00:19;;;;;;;0.60;0.60;;;;;;;10.09;63.73;101695.50;5056745;28;20112;-70
2021/11/07 05:02:48;;;;;;;0.53;0.53;;;;;;;10.12;63.25;101684.28;5056260;28;20298;-70
2021/11/07 05:05:14;;;;;;;0.40;0.40;;;;;;;10.13;62.28;101686.06;5039095;28;20307;-65
2021/11/07 05:07:39;;;;;;;0.40;0.40;;;;;;;10.15;62.24;101689.69;5038942;28;20063;-68
2021/11/07 05:10:05;;;;;;;0.40;0.40;;;;;;;10.14;62.57;101693.09;5056419;28;20295;-67
2021/11/07 05:12:31;;;;;;;0.43;0.43;;;;;;;10.12;61.89;101687.81;5056725;28;20074;-66
2021/11/07 05:14:56;;;;;;;0.50;0.50;;;;;;;10.15;61.40;101685.31;5039286;28;20136;-67
2021/11/07 05:17:21;;;;;;;0.50;0.50;;;;;;;10.13;60.59;101691.31;5039262;28;20108;-73
2021/11/07 05:19:47;;;;;;;0.60;0.60;;;;;;;10.14;61.25;101688.78;5057003;28;20099;-70
2021/11/07 05:22:12;;;;;;;0.30;0.30;;;;;;;10.09;59.79;101686.78;5038768;28;20421;-65
2021/11/07 05:24:38;;;;;;;0.50;0.50;;;;;;;10.03;59.75;101690.03;5054508;28;20049;-70
2021/11/07 05:27:04;;;;;;;0.40;0.40;;;;;;;10.01;60.67;101686.44;5055906;28;20047;-66
2021/11/07 05:29:29;;;;;;;0.50;0.50;;;;;;;9.96;60.89;101691.47;5056858;28;20025;-67
2021/11/07 05:31:55;;;;;;;0.47;0.47;;;;;;;9.91;60.71;101706.09;5059558;28;20082;-69
2021/11/07 05:34:21;;;;;;;0.33;0.33;;;;;;;9.86;60.89;101708.50;5043148;28;20029;-70
2021/11/07 05:36:46;;;;;;;0.40;0.40;;;;;;;9.87;60.73;101704.13;5060229;28;20032;-70
2021/11/07 05:39:12;;;;;;;0.40;0.40;;;;;;;9.82;60.04;101714.41;5059941;28;20225;-69
2021/11/07 05:41:38;;;;;;;0.50;0.50;;;;;;;9.77;61.09;101697.59;5060140;28;20033;-72
2021/11/07 05:44:04;;;;;;;0.63;0.63;;;;;;;9.78;62.09;101699.38;5042036;28;20085;-68
2021/11/07 05:46:30;;;;;;;0.47;0.47;;;;;;;9.74;62.71;101702.69;5059681;28;20025;-71
2021/11/07 05:48:55;;;;;;;0.50;0.50;;;;;;;9.74;62.95;101702.69;5060071;28;20040;-71
2021/11/07 05:51:21;;;;;;;0.40;0.40;;;;;;;9.72;63.09;101705.22;5060461;28;20099;-67
2021/11/07 05:53:46;;;;;;;0.40;0.40;;;;;;;9.78;63.97;101703.72;5060053;28;20033;-70
2021/11/07 05:56:11;;;;;;;0.40;0.40;;;;;;;9.78;64.16;101716.81;5059795;28;20040;-67
2021/11/07 05:58:38;;;;;;;0.50;0.50;;;;;;;9.74;64.28;101707.91;5059172;28;20044;-69
2021/11/07 06:01:04;;;;;;;0.40;0.40;;;;;;;9.73;64.33;101713.97;5059955;28;20035;-71
2021/11/07 06:03:29;;;;;;;0.60;0.60;;;;;;;9.68;64.04;101707.63;5042103;28;20025;-67
2021/11/07 06:05:54;;;;;;;0.40;0.40;;;;;;;9.68;64.09;101728.56;5042497;28;20294;-69
2021/11/07 06:08:20;;;;;;;0.50;0.50;;;;;;;9.68;63.46;101720.72;5042427;28;20044;-69
2021/11/07 06:10:45;;;;;;;0.50;0.50;;;;;;;9.66;64.13;101714.53;5060080;28;20029;-67
2021/11/07 06:13:11;;;;;;;0.30;0.30;;;;;;;9.64;64.14;101726.63;5059220;28;20033;-70
2021/11/07 06:15:36;;;;;;;0.40;0.40;;;;;;;9.60;63.86;101718.63;5059457;28;20041;-73
2021/11/07 06:18:02;;;;;;;0.50;0.50;;;;;;;9.61;64.13;101716.94;5057880;28;20452;-70
2021/11/07 06:20:28;;;;;;;0.57;0.57;;;;;;;9.56;63.91;101707.97;5059774;28;20028;-66
2021/11/07 06:22:54;;;;;;;0.50;0.50;;;;;;;9.57;63.64;101715.88;5058654;28;20024;-67
2021/11/07 06:25:19;;;;;;;0.40;0.40;;;;;;;9.57;63.26;101723.72;5059763;28;20013;-69
2021/11/07 06:27:44;;;;;;;0.40;0.40;;;;;;;9.56;64.40;101734.09;5041912;28;20121;-76
2021/11/07 06:30:10;;;;;;;0.47;0.47;;;;;;;9.55;63.91;101722.78;5059351;28;20025;-67
2021/11/07 06:32:36;;;;;;;0.40;0.40;;;;;;;9.58;64.58;101716.75;5058367;28;20036;-68
2021/11/07 06:35:05;;;;;;;0.40;0.40;;;;;;;9.56;63.97;101718.41;5059289;28;20032;-69
2021/11/07 06:37:30;;;;;;;0.30;0.30;;;;;;;9.49;63.85;101723.34;5023925;28;20028;-70
2021/11/07 06:39:56;;;;;;;0.50;0.50;;;;;;;9.46;64.53;101731.06;5058915;28;20307;-69
2021/11/07 06:42:21;;;;;;;0.40;0.40;;;;;;;9.46;63.32;101725.84;5041031;28;20020;-67
2021/11/07 06:44:47;;;;;;;0.40;0.40;;;;;;;9.46;64.04;101744.13;5042009;28;20391;-67
2021/11/07 06:47:12;;;;;;;0.47;0.47;;;;;;;9.47;64.39;101732.84;5058272;28;20029;-67
2021/11/07 06:49:38;;;;;;;0.40;0.40;;;;;;;9.46;63.81;101749.38;5058733;28;20099;-67
2021/11/07 06:52:04;;;;;;;0.50;0.50;;;;;;;9.42;64.99;101741.31;5058603;28;20036;-67
2021/11/07 06:54:29;;;;;;;0.30;0.30;;;;;;;9.40;65.19;101743.84;5059031;28;20021;-68
2021/11/07 06:56:55;;;;;;;0.50;0.50;;;;;;;9.39;65.35;101744.66;5021213;28;20391;-66
2021/11/07 06:59:20;;;;;;;0.40;0.40;;;;;;;9.34;65.25;101757.53;5056394;28;20077;-68
2021/11/07 07:01:46;;;;;;;0.40;0.40;;;;;;;9.35;65.72;101746.25;5058288;28;20075;-67
2021/11/07 07:04:11;;;;;;;0.40;0.40;;;;;;;9.39;65.71;101747.28;5058565;28;20051;-69
2021/11/07 07:06:37;;;;;;;0.43;0.43;;;;;;;9.44;65.15;101735.34;5041227;28;20033;-67
2021/11/07 07:09:07;;;;;;;0.40;0.40;;;;;;;9.49;65.22;101743.41;5058491;28;20103;-66
2021/11/07 07:11:36;;;;;;;0.40;0.40;;;;;;;9.48;66.19;101737.25;5058806;28;20112;-66
2021/11/07 07:14:08;;;;;;;0.50;0.50;;;;;;;9.45;66.64;101742.34;5058149;28;20245;-69
2021/11/07 07:26:47;;;;;;;0.40;0.40;;;;;;;9.42;64.68;101739.59;5058752;28;20044;-71
2021/11/07 07:34:37;;;;;;;0.47;0.47;;;;;;;9.41;64.89;101747.38;5058597;28;20032;-69
2021/11/07 07:37:03;;;;;;;0.30;0.30;;;;;;;9.36;65.67;101755.00;5057159;28;20088;-68
2021/11/07 07:39:28;;;;;;;0.33;0.33;;;;;;;9.37;66.22;101748.03;5058107;28;20045;-69
2021/11/07 07:41:53;;;;;;;0.40;0.40;;;;;;;9.37;64.97;101751.56;5057213;28;20296;-70
2021/11/07 07:44:19;;;;;;;0.37;0.37;;;;;;;9.38;65.73;101761.19;5040212;28;20025;-67
2021/11/07 07:46:45;;;;;;;0.47;0.47;;;;;;;9.39;65.74;101752.50;5057564;28;20032;-69
2021/11/07 07:49:16;;;;;;;0.50;0.50;;;;;;;9.43;65.42;101750.94;5057501;28;20029;-68
2021/11/07 07:51:42;;;;;;;0.47;0.47;;;;;;;9.45;64.77;101751.91;5057782;28;20555;-69
2021/11/07 07:54:08;;;;;;;0.37;0.37;;;;;;;9.49;64.15;101764.31;5057591;28;20086;-66
2021/11/07 07:56:35;;;;;;;0.30;0.30;;;;;;;9.54;64.18;101768.06;5057847;28;20123;-66
2021/11/07 07:59:02;;;;;;;0.30;0.30;;;;;;;9.57;64.83;101759.44;5056726;28;20375;-69
2021/11/07 08:01:28;;;;;;;0.40;0.40;;;;;;;9.60;64.64;101776.16;5039770;28;20083;-69
2021/11/07 08:03:54;;;;;;;0.40;0.40;;;;;;;9.62;64.56;101778.84;5057296;28;20029;-68
2021/11/07 08:06:20;;;;;;;0.40;0.40;;;;;;;9.63;65.07;101778.03;5057736;28;20387;-68
2021/11/07 08:08:46;;;;;;;0.33;0.33;;;;;;;9.64;64.49;101766.75;5057076;28;20033;-69
2021/11/07 08:11:11;;;;;;;0.43;0.43;;;;;;;9.62;64.87;101765.78;5056631;28;20059;-68
2021/11/07 08:13:37;;;;;;;0.40;0.40;;;;;;;9.62;64.70;101753.63;5056733;28;20036;-68
2021/11/07 08:16:03;;;;;;;0.50;0.50;;;;;;;9.63;65.01;101770.19;5055880;28;20044;-67
2021/11/07 08:18:28;;;;;;;0.40;0.40;;;;;;;9.61;64.62;101774.47;5055856;28;20023;-69
2021/11/07 08:20:54;;;;;;;0.50;0.50;;;;;;;9.65;63.88;101765.03;5057142;28;20055;-67
2021/11/07 08:23:22;;;;;;;0.40;0.40;;;;;;;9.64;64.21;101773.72;5057199;28;20132;-68
2021/11/07 08:25:48;;;;;;;0.33;0.33;;;;;;;9.64;64.87;101766.75;5040172;28;20028;-66
2021/11/07 08:28:17;;;;;;;0.40;0.40;;;;;;;9.63;64.50;101767.56;5056964;28;20103;-65
2021/11/07 08:30:43;;;;;;;0.50;0.50;;;;;;;9.62;65.59;101769.31;5054991;28;20045;-68
2021/11/07 08:33:09;;;;;;;0.50;0.50;;;;;;;9.65;64.47;101780.72;5056548;28;20027;-69
2021/11/07 08:35:40;;;;;;;0.47;0.47;;;;;;;9.68;64.91;101773.94;5057259;28;20284;-68
2021/11/07 08:38:10;;;;;;;0.47;0.47;;;;;;;9.75;64.98;101781.25;5056027;28;20028;-68
2021/11/07 08:40:41;;;;;;;0.37;0.37;;;;;;;9.79;64.55;101773.53;5057007;28;20032;-67
2021/11/07 08:54:26;;;;;;;0.50;0.50;;;;;;;9.80;63.74;101780.53;5056691;28;20029;-69
2021/11/07 09:02:34;;;;;;;0.37;0.37;;;;;;;9.71;64.51;101763.59;5056763;28;20052;-69
2021/11/07 09:05:04;;;;;;;0.30;0.30;;;;;;;9.79;63.70;101769.19;5040633;28;20265;-64
2021/11/07 09:10:06;;;;;;;0.50;0.50;;;;;;;9.96;63.59;101769.97;5056515;28;20033;-66
2021/11/07 09:12:32;;;;;;;0.27;0.27;;;;;;;10.03;63.42;101773.78;5036808;28;20018;-66
2021/11/07 09:14:58;;;;;;;0.40;0.40;;;;;;;10.02;64.15;101780.72;5019469;28;20033;-70
2021/11/07 09:17:23;;;;;;;0.40;0.40;;;;;;;10.02;62.91;101785.03;5052457;28;20036;-67
2021/11/07 09:19:53;;;;;;;0.40;0.40;;;;;;;10.10;62.40;101781.03;5054262;28;20041;-68
2021/11/07 09:22:46;;;;;;;0.50;0.50;;;;;;;10.12;63.25;101771.56;5056420;28;20025;-70
2021/11/07 09:25:09;;;;;;;0.40;0.40;;;;;;;10.16;63.27;101776.09;5041510;28;20034;-69
2021/11/07 09:30:21;;;;;;;0.50;0.50;;;;;;;10.30;61.38;101775.81;5049843;28;20303;-70
2021/11/07 09:32:54;;;;;;;0.40;0.40;;;;;;;10.30;61.65;101788.91;5055871;28;20025;-71
2021/11/07 09:37:58;;;;;;;0.50;0.50;;;;;;;10.32;61.01;101776.78;5056463;28;20037;-67
2021/11/07 09:40:26;;;;;;;0.40;0.40;;;;;;;10.44;61.53;101777.38;5056740;28;20047;-67
2021/11/07 09:43:07;;;;;;;0.40;0.40;;;;;;;10.49;60.91;101774.03;5037902;28;20041;-66
2021/11/07 09:51:15;;;;;;;0.50;0.50;;;;;;;10.37;60.71;101790.97;5047503;28;20056;-68
2021/11/07 09:53:42;;;;;;;0.40;0.40;;;;;;;10.39;62.41;101777.97;5056334;28;20041;-69
2021/11/07 09:56:08;;;;;;;0.50;0.50;;;;;;;10.44;61.62;101786.94;5041602;28;20057;-69
2021/11/07 09:58:33;;;;;;;0.50;0.50;;;;;;;10.47;61.94;101789.72;5056093;28;20418;-68
2021/11/07 10:00:59;;;;;;;0.50;0.50;;;;;;;10.54;62.25;101785.63;5056236;28;20029;-71
2021/11/07 10:03:25;;;;;;;0.50;0.50;;;;;;;10.57;60.45;101793.59;5055386;28;20056;-73
2021/11/07 10:05:52;;;;;;;0.40;0.40;;;;;;;10.57;60.61;101794.50;5058533;28;20500;-67
2021/11/07 10:08:18;;;;;;;0.50;0.50;;;;;;;10.53;60.64;101797.81;5038839;28;20021;-67
2021/11/07 10:10:54;;;;;;;0.43;0.43;;;;;;;10.54;61.18;101793.47;5038829;28;20017;-68
2021/11/07 10:13:23;;;;;;;0.33;0.33;;;;;;;10.56;60.42;101795.34;5056206;28;20021;-69
2021/11/07 10:15:57;;;;;;;0.50;0.50;;;;;;;10.63;60.63;101790.38;5055629;28;20040;-68
2021/11/07 10:18:29;;;;;;;0.50;0.50;;;;;;;10.59;60.73;101810.31;5058209;28;20020;-68
2021/11/07 10:20:58;;;;;;;0.50;0.50;;;;;;;10.55;61.12;101798.78;5042170;28;20029;-70
2021/11/07 10:23:32;;;;;;;0.60;0.60;;;;;;;10.53;61.22;101781.22;5057084;28;20024;-65
2021/11/07 10:26:24;;;;;;;0.50;0.50;;;;;;;10.52;61.76;101797.75;5046710;28;20064;-67
2021/11/07 10:28:59;;;;;;;0.47;0.47;;;;;;;10.47;60.40;101783.56;5059421;28;20029;-67
2021/11/07 10:31:43;;;;;;;0.50;0.50;;;;;;;10.43;60.71;101793.91;5041906;28;20079;-67
2021/11/07 10:53:27;;;;;;;0.40;0.40;;;;;;;10.57;61.53;101793.59;5044865;28;20101;-74
2021/11/07 10:56:01;;;;;;;0.50;0.50;;;;;;;10.61;61.69;101785.06;5059251;28;20053;-71
2021/11/07 10:58:29;;;;;;;0.50;0.50;;;;;;;10.50;61.73;101786.31;5059048;28;20051;-72
2021/11/07 11:00:56;;;;;;;0.40;0.40;;;;;;;10.36;61.12;101791.81;5039137;28;20049;-73
2021/11/07 11:03:23;;;;;;;0.40;0.40;;;;;;;10.31;60.98;101778.53;5054481;28;20052;-69
2021/11/07 11:05:52;;;;;;;0.50;0.50;;;;;;;10.31;60.98;101793.31;5043559;28;20026;-71
2021/11/07 11:08:24;;;;;;;0.60;0.60;;;;;;;10.35;61.16;101776.94;5038578;28;20031;-69
2021/11/07 11:11:09;;;;;;;0.33;0.33;;;;;;;10.42;62.19;101784.25;5053841;28;20420;-69
2021/11/07 11:13:48;;;;;;;0.40;0.40;;;;;;;10.52;61.26;101792.53;5041183;28;20047;-71
2021/11/07 11:22:09;;;;;;;0.50;0.50;;;;;;;10.84;60.91;101791.28;5052683;28;20069;-73
2021/11/07 11:27:24;;;;;;;0.60;0.60;;;;;;;10.90;61.86;101781.91;5057440;28;20049;-72
2021/11/07 11:34:47;;;;;;;0.40;0.40;;;;;;;10.72;60.08;101793.38;5047872;28;20367;-70
2021/11/07 11:40:25;;;;;;;0.50;0.50;;;;;;;10.62;61.24;101784.22;5040889;28;20043;-75
2021/11/07 11:42:56;;;;;;;0.60;0.60;;;;;;;10.70;60.94;101790.69;5054412;28;20041;-67
2021/11/07 11:45:28;;;;;;;0.60;0.60;;;;;;;10.75;61.18;101798.75;5040327;28;20075;-71
2021/11/07 11:57:24;;;;;;;0.40;0.40;;;;;;;10.52;60.40;101787.28;5043273;28;20044;-70
2021/11/07 12:00:10;;;;;;;0.40;0.40;;;;;;;10.45;61.04;101780.88;5031850;28;20056;-69
2021/11/07 12:02:50;;;;;;;0.60;0.60;;;;;;;10.36;61.45;101797.06;5054828;28;20410;-70
2021/11/07 12:05:28;;;;;;;0.33;0.33;;;;;;;10.36;61.18;101790.91;5055723;28;20037;-69
2021/11/07 12:08:12;;;;;;;0.50;0.50;;;;;;;10.36;61.08;101790.91;5055541;28;20029;-71
2021/11/07 12:10:49;;;;;;;0.50;0.50;;;;;;;10.43;61.48;101770.34;5055892;28;20984;-73
2021/11/07 12:13:43;;;;;;;0.30;0.30;;;;;;;10.60;60.95;101785.00;5055073;28;20098;-70
2021/11/07 12:16:16;;;;;;;0.30;0.30;;;;;;;10.83;60.53;101786.88;5053983;28;20090;-69
2021/11/07 12:19:12;;;;;;;0.50;0.50;;;;;;;10.87;59.76;101780.03;5056605;28;20086;-75
2021/11/07 12:21:54;;;;;;;0.40;0.40;;;;;;;10.80;60.93;101777.97;5040262;28;20032;-75
2021/11/07 12:24:22;;;;;;;0.30;0.30;;;;;;;10.69;61.49;101782.75;5056071;28;20052;-72
2021/11/07 12:26:50;;;;;;;0.40;0.40;;;;;;;10.67;62.42;101785.34;5055207;28;20044;-76
2021/11/07 12:29:39;;;;;;;0.40;0.40;;;;;;;10.58;61.66;101785.81;5022102;28;20072;-74
2021/11/07 12:32:08;;;;;;;0.60;0.60;;;;;;;10.53;62.29;101784.72;5011534;28;20025;-76
2021/11/07 12:35:14;;;;;;;0.40;0.40;;;;;;;10.47;63.43;101778.31;5040882;28;20040;-73
2021/11/07 12:40:50;;;;;;;0.37;0.37;;;;;;;10.57;61.36;101783.13;5037006;28;20102;-77
2021/11/07 12:43:23;;;;;;;0.40;0.40;;;;;;;10.64;62.47;101771.22;5038423;28;20032;-79
2021/11/07 12:45:54;;;;;;;0.60;0.60;;;;;;;10.63;62.19;101780.78;5033593;28;20115;-76
2021/11/07 12:48:42;;;;;;;0.40;0.40;;;;;;;10.64;62.21;101786.94;5055874;28;20068;-71
2021/11/07 12:51:12;;;;;;;0.33;0.33;;;;;;;10.55;62.79;101787.41;5037585;28;20298;-77
2021/11/07 12:53:56;;;;;;;0.60;0.60;;;;;;;10.47;64.80;101767.84;5056382;28;20036;-69
2021/11/07 12:56:31;;;;;;;0.40;0.40;;;;;;;10.41;64.33;101782.41;5055463;28;20033;-72
2021/11/07 12:59:01;;;;;;;0.33;0.33;;;;;;;10.44;63.75;101787.84;5052325;28;20029;-66
2021/11/07 13:01:51;;;;;;;0.40;0.40;;;;;;;10.45;63.30;101783.47;5037312;28;20342;-73
2021/11/07 13:04:16;;;;;;;0.40;0.40;;;;;;;10.40;63.77;101787.59;5030914;28;20431;-73
2021/11/07 13:06:42;;;;;;;0.47;0.47;;;;;;;10.37;64.99;101792.69;5054276;28;20040;-71
2021/11/07 13:09:08;;;;;;;0.47;0.47;;;;;;;10.36;65.50;101789.19;5056213;28;20041;-73
2021/11/07 13:11:38;;;;;;;0.60;0.60;;;;;;;10.35;64.84;101782.16;5046234;28;20041;-74
2021/11/07 13:14:15;;;;;;;0.50;0.50;;;;;;;10.30;64.26;101791.53;5036610;28;20132;-72
2021/11/07 13:17:07;;;;;;;0.60;0.60;;;;;;;10.27;64.28;101779.19;5048655;28;20032;-71
2021/11/07 13:20:10;;;;;;;0.33;0.33;;;;;;;10.22;63.10;101787.69;5056804;28;20044;-69
2021/11/07 13:25:18;;;;;;;0.50;0.50;;;;;;;10.28;64.09;101793.19;5054967;28;20052;-70
2021/11/07 13:27:50;;;;;;;0.40;0.40;;;;;;;10.24;64.73;101791.25;5055519;28;20037;-74